Time;durP1;ratioP1;P1;durP2;ratioP2;P2;SDS_P1;SDS_P2;PMS_P1;PMS_P2;Temp;Humidity;BMP_temperature;BMP_pressure;BME280_temperature;BME280_humidity;BME280_pressure;Samples;Min_cycle;Max_cycle;Signal;HPM_P1;HPM_P2
2022/04/11 00:02:16;;;;;;;12.07;6.07;;;179.70;2252.80;;;;;;5013690;28;19912;-78
2022/04/11 00:04:42;;;;;;;12.65;6.25;;;179.40;2252.80;;;;;;5013708;28;20161;-77
2022/04/11 00:07:08;;;;;;;13.05;6.85;;;179.30;2252.80;;;;;;5013951;28;20049;-77
2022/04/11 00:09:33;;;;;;;;;;;179.20;2252.80;;;;;;5013988;28;20099;-78
2022/04/11 00:11:59;;;;;;;11.07;6.20;;;179.20;2252.80;;;;;;5013660;28;19906;-78
2022/04/11 00:14:25;;;;;;;;;;;179.30;2252.80;;;;;;5013849;28;20025;-78
2022/04/11 00:16:50;;;;;;;12.63;6.13;;;179.20;2252.80;;;;;;5014499;28;19905;-84
2022/04/11 00:19:16;;;;;;;;;;;154.50;2252.80;;;;;;5013894;28;20054;-78
2022/04/11 00:21:42;;;;;;;11.75;6.35;;;154.50;2252.80;;;;;;5013876;28;19909;-84
2022/04/11 00:24:08;;;;;;;;;;;179.20;2252.80;;;;;;5013283;28;20034;-77
2022/04/11 00:26:33;;;;;;;10.85;5.60;;;179.20;2252.80;;;;;;5013610;28;19917;-78
2022/04/11 00:28:59;;;;;;;;;;;179.30;2252.80;;;;;;5013537;28;20540;-78
2022/04/11 00:31:25;;;;;;;9.02;5.13;;;179.30;2252.80;;;;;;5013359;28;20313;-78
2022/04/11 00:33:51;;;;;;;13.80;5.43;;;179.20;2252.80;;;;;;5013070;28;20080;-78
2022/04/11 00:36:17;;;;;;;;;;;179.30;2252.80;;;;;;5013549;28;20435;-79
2022/04/11 00:38:43;;;;;;;11.15;5.50;;;154.50;2252.80;;;;;;5013309;28;19913;-78
2022/04/11 00:41:08;;;;;;;;;;;154.50;2252.80;;;;;;5014409;28;20030;-78
2022/04/11 00:43:39;;;;;;;8.80;4.97;;;179.30;2252.80;;;;;;5013481;28;19984;-84
2022/04/11 00:46:07;;;;;;;10.02;5.97;;;154.50;2252.80;;;;;;5012940;28;20450;-78
2022/04/11 00:48:34;;;;;;;8.40;5.05;;;154.50;2252.80;;;;;;5013123;28;20022;-78
2022/04/11 00:51:04;;;;;;;13.45;5.82;;;154.40;2252.80;;;;;;5013203;28;20026;-78
2022/04/11 00:53:32;;;;;;;8.82;5.28;;;154.50;2252.80;;;;;;5013155;28;20037;-78
2022/04/11 00:55:58;;;;;;;11.13;5.57;;;154.50;2252.80;;;;;;5012830;28;20076;-78
2022/04/11 00:58:24;;;;;;;10.13;5.45;;;179.30;2252.80;;;;;;5012909;28;20097;-77
2022/04/11 01:00:50;;;;;;;;;;;179.20;2252.80;;;;;;5013221;28;20044;-84
2022/04/11 01:03:16;;;;;;;10.68;6.03;;;179.20;2252.80;;;;;;5014041;28;19975;-78
2022/04/11 01:05:42;;;;;;;9.55;5.72;;;154.50;2252.80;;;;;;5012608;28;20026;-78
2022/04/11 01:08:09;;;;;;;;;;;179.30;2252.80;;;;;;5013360;28;20084;-78
2022/04/11 01:10:35;;;;;;;9.40;4.85;;;179.40;2252.80;;;;;;5012446;28;19905;-78
2022/04/11 01:13:02;;;;;;;9.07;4.57;;;179.40;2252.80;;;;;;5012805;28;20560;-78
2022/04/11 01:15:27;;;;;;;10.95;5.20;;;179.30;2252.80;;;;;;5014111;28;20026;-79
2022/04/11 01:17:53;;;;;;;;;;;179.40;2252.80;;;;;;5013987;28;20080;-78
2022/04/11 01:20:19;;;;;;;11.30;5.45;;;179.30;2252.80;;;;;;5014106;28;19911;-84
2022/04/11 01:22:46;;;;;;;7.97;4.90;;;179.30;2252.80;;;;;;5012107;28;20041;-79
2022/04/11 01:25:13;;;;;;;11.95;5.45;;;154.40;2252.80;;;;;;5012917;28;20030;-84
2022/04/11 01:27:39;;;;;;;10.30;5.15;;;179.30;2252.80;;;;;;5012529;28;20075;-78
2022/04/11 01:30:06;;;;;;;9.25;4.80;;;179.20;2252.80;;;;;;5012695;28;20033;-79
2022/04/11 01:32:32;;;;;;;8.10;4.80;;;179.30;2252.80;;;;;;5012405;28;20037;-78
2022/04/11 01:34:57;;;;;;;;;;;179.20;2252.80;;;;;;5013098;28;20382;-78
2022/04/11 01:37:24;;;;;;;11.68;4.63;;;154.50;2252.80;;;;;;5012435;28;19973;-80
2022/04/11 01:39:49;;;;;;;6.95;4.07;;;154.50;2252.80;;;;;;5012614;28;20440;-77
2022/04/11 01:42:15;;;;;;;;;;;154.40;2252.80;;;;;;5017864;28;20026;-78
2022/04/11 01:44:41;;;;;;;7.22;4.50;;;154.20;2252.80;;;;;;5016639;28;19906;-78
2022/04/11 01:47:06;;;;;;;;;;;154.40;2252.80;;;;;;5016405;28;20037;-78
2022/04/11 01:49:32;;;;;;;9.18;4.35;;;154.30;2252.80;;;;;;5016961;28;19905;-78
2022/04/11 01:51:57;;;;;;;;;;;154.20;2252.80;;;;;;5016650;28;20474;-78
2022/04/11 01:54:23;;;;;;;11.43;5.20;;;154.30;2252.80;;;;;;5016106;28;19921;-78
2022/04/11 01:56:49;;;;;;;;;;;154.10;2252.80;;;;;;5016013;28;20034;-78
2022/04/11 01:59:16;;;;;;;9.10;4.70;;;153.90;2252.80;;;;;;5017521;28;19928;-82
2022/04/11 02:01:43;;;;;;;10.55;5.00;;;154.00;2252.80;;;;;;5016018;28;20470;-78
2022/04/11 02:04:09;;;;;;;10.40;4.93;;;154.00;2252.80;;;;;;5016006;28;20026;-77
2022/04/11 02:06:34;;;;;;;;;;;154.00;2252.80;;;;;;5016591;28;20033;-78
2022/04/11 02:09:00;;;;;;;8.98;4.63;;;153.90;2252.80;;;;;;5016166;28;19912;-84
2022/04/11 02:11:26;;;;;;;;;;;153.80;2252.80;;;;;;5016468;28;20052;-78
2022/04/11 02:13:52;;;;;;;9.30;4.38;;;153.70;2252.80;;;;;;5015911;28;19960;-78
2022/04/11 02:16:17;;;;;;;;;;;128.90;2252.80;;;;;;5016410;28;20108;-79
2022/04/11 02:18:43;;;;;;;18.70;6.60;;;128.90;2252.80;;;;;;5015736;28;19905;-77
2022/04/11 02:21:08;;;;;;;;;;;153.60;2252.80;;;;;;5016319;28;20126;-84
2022/04/11 02:23:34;;;;;;;15.20;5.80;;;128.80;2252.80;;;;;;5015606;28;20288;-78
2022/04/11 02:26:00;;;;;;;;;;;128.60;2252.80;;;;;;5016285;28;20088;-84
2022/04/11 02:28:26;;;;;;;13.48;5.35;;;128.70;2252.80;;;;;;5015517;28;19912;-76
2022/04/11 02:30:51;;;;;;;;;;;128.70;2252.80;;;;;;5015363;28;20026;-78
2022/04/11 02:33:17;;;;;;;11.75;5.68;;;128.70;2252.80;;;;;;5015216;28;19905;-84
2022/04/11 02:35:43;;;;;;;;;;;128.60;2252.80;;;;;;5015999;28;20420;-78
2022/04/11 02:38:08;;;;;;;8.65;4.50;;;128.70;2252.80;;;;;;5015487;28;19913;-79
2022/04/11 02:40:34;;;;;;;;;;;128.80;2252.80;;;;;;5015927;28;20037;-78
2022/04/11 02:42:59;;;;;;;10.02;4.47;;;128.90;2252.80;;;;;;5015557;28;20349;-78
2022/04/11 02:45:25;;;;;;;;;;;128.70;2252.80;;;;;;5015608;28;20520;-78
2022/04/11 02:47:51;;;;;;;10.90;4.97;;;128.80;2252.80;;;;;;5015442;28;19910;-83
2022/04/11 02:50:16;;;;;;;;;;;128.80;2252.80;;;;;;5015245;28;20040;-78
2022/04/11 02:52:42;;;;;;;9.13;4.63;;;128.80;2252.80;;;;;;5014937;28;19913;-82
2022/04/11 02:55:09;;;;;;;9.18;4.22;;;128.80;2252.80;;;;;;5015123;28;20074;-78
2022/04/11 02:57:36;;;;;;;;;;;128.80;2252.80;;;;;;5015748;28;20033;-77
2022/04/11 03:00:08;;;;;;;7.65;4.05;;;153.60;2252.80;;;;;;5015060;28;19915;-79
2022/04/11 03:02:34;;;;;;;12.30;5.65;;;153.60;2252.80;;;;;;5014787;28;20037;-78
2022/04/11 03:04:59;;;;;;;;;;;153.70;2252.80;;;;;;5015599;28;20050;-82
2022/04/11 03:07:27;;;;;;;9.63;4.43;;;153.80;2252.80;;;;;;5014943;28;19909;-77
2022/04/11 03:09:53;;;;;;;9.02;5.22;;;153.90;2252.80;;;;;;5014806;28;20059;-79
2022/04/11 03:12:19;;;;;;;16.13;5.25;;;154.00;2252.80;;;;;;5014884;28;20057;-78
2022/04/11 03:14:44;;;;;;;;;;;154.00;2252.80;;;;;;5015135;28;20060;-78
2022/04/11 03:17:10;;;;;;;9.93;4.97;;;153.80;2252.80;;;;;;5015177;28;20321;-78
2022/04/11 03:19:36;;;;;;;;;;;154.00;2252.80;;;;;;5016013;28;20109;-78
2022/04/11 03:22:01;;;;;;;10.57;4.70;;;154.00;2252.80;;;;;;5014579;28;19905;-77
2022/04/11 03:24:28;;;;;;;10.32;4.35;;;154.10;2252.80;;;;;;5016146;28;20097;-78
2022/04/11 03:26:53;;;;;;;;;;;154.10;2252.80;;;;;;5014509;28;20033;-78
2022/04/11 03:29:19;;;;;;;7.10;3.90;;;154.10;2252.80;;;;;;5014928;28;20004;-78
2022/04/11 03:31:46;;;;;;;;;;;154.00;2252.80;;;;;;5015269;28;20037;-83
2022/04/11 03:34:12;;;;;;;5.00;3.33;;;154.00;2252.80;;;;;;5014374;28;19912;-78
2022/04/11 03:36:37;;;;;;;;;;;153.90;2252.80;;;;;;5014664;28;20048;-78
2022/04/11 03:39:03;;;;;;;11.13;4.50;;;153.80;2252.80;;;;;;5014857;28;19906;-79
2022/04/11 03:41:29;;;;;;;;;;;154.10;2252.80;;;;;;5014729;28;20034;-77
2022/04/11 03:43:55;;;;;;;11.25;4.10;;;154.10;2252.80;;;;;;5014100;28;19944;-79
2022/04/11 03:46:20;;;;;;;;;;;154.00;2252.80;;;;;;5014516;28;20073;-76
2022/04/11 03:48:46;;;;;;;7.50;4.07;;;154.10;2252.80;;;;;;5014694;28;19905;-78
2022/04/11 03:51:11;;;;;;;;;;;154.10;2252.80;;;;;;5014496;28;20022;-77
2022/04/11 03:53:37;;;;;;;7.10;3.53;;;154.00;2252.80;;;;;;5014034;28;19915;-81
2022/04/11 03:56:03;;;;;;;;;;;153.90;2252.80;;;;;;5014328;28;20045;-86
2022/04/11 03:58:28;;;;;;;7.30;4.43;;;153.80;2252.80;;;;;;5013397;28;19906;-78
2022/04/11 04:00:54;;;;;;;;;;;153.80;2252.80;;;;;;5014969;28;20061;-77
2022/04/11 04:03:20;;;;;;;9.57;3.70;;;153.90;2252.80;;;;;;5012670;28;20357;-79
2022/04/11 04:05:46;;;;;;;;;;;153.80;2252.80;;;;;;5013641;28;20025;-87
2022/04/11 04:08:13;;;;;;;9.90;4.22;;;153.80;2252.80;;;;;;5013394;28;19905;-77
2022/04/11 04:10:43;;;;;;;7.82;4.68;;;153.80;2252.80;;;;;;5013265;28;20062;-79
2022/04/11 04:13:09;;;;;;;8.70;4.70;;;153.80;2252.80;;;;;;5014384;28;20026;-79
2022/04/11 04:15:34;;;;;;;;;;;153.70;2252.80;;;;;;5013268;28;20052;-77
2022/04/11 04:18:00;;;;;;;9.43;5.13;;;153.70;2252.80;;;;;;5012662;28;20384;-78
2022/04/11 04:20:26;;;;;;;;;;;128.90;2252.80;;;;;;5013088;28;20109;-76
2022/04/11 04:22:56;;;;;;;10.32;4.28;;;128.60;2252.80;;;;;;5012583;28;19909;-77
2022/04/11 04:25:22;;;;;;;7.40;4.28;;;128.70;2252.80;;;;;;5013713;28;20030;-76
2022/04/11 04:27:48;;;;;;;12.50;5.63;;;128.60;2252.80;;;;;;5012496;28;20021;-76
2022/04/11 04:30:14;;;;;;;11.93;5.30;;;128.60;2252.80;;;;;;5012327;28;20026;-75
2022/04/11 04:32:40;;;;;;;;;;;128.50;2252.80;;;;;;5012778;28;20528;-83
2022/04/11 04:35:09;;;;;;;8.63;3.55;;;128.70;2252.80;;;;;;5012969;28;19905;-78
2022/04/11 04:37:34;;;;;;;8.23;3.92;;;128.60;2252.80;;;;;;5012545;28;20057;-77
2022/04/11 04:40:00;;;;;;;;;;;128.80;2252.80;;;;;;5014286;28;20022;-82
2022/04/11 04:42:26;;;;;;;10.05;4.18;;;128.80;2252.80;;;;;;5012445;28;19905;-78
2022/04/11 04:44:52;;;;;;;;;;;128.70;2252.80;;;;;;5014191;28;20081;-75
2022/04/11 04:47:18;;;;;;;7.40;3.90;;;128.80;2252.80;;;;;;5012640;28;19953;-77
2022/04/11 04:49:44;;;;;;;;;;;128.70;2252.80;;;;;;5013418;28;20397;-78
2022/04/11 04:52:10;;;;;;;6.40;3.47;;;128.70;2252.80;;;;;;5012264;28;19920;-82
2022/04/11 04:54:36;;;;;;;;;;;128.70;2252.80;;;;;;4970115;28;1237894;-77
2022/04/11 04:57:02;;;;;;;12.57;5.28;;;128.50;2252.80;;;;;;5014175;28;19913;-82
2022/04/11 04:59:27;;;;;;;;;;;128.60;2252.80;;;;;;5013402;28;20040;-84
2022/04/11 05:01:53;;;;;;;25.30;7.30;;;128.50;2252.80;;;;;;5012848;28;19905;-78
2022/04/11 05:04:19;;;;;;;;;;;128.30;2252.80;;;;;;5013170;28;20041;-77
2022/04/11 05:06:44;;;;;;;33.28;9.80;;;128.40;2252.80;;;;;;5012837;28;19913;-77
2022/04/11 05:09:10;;;;;;;;;;;128.40;2252.80;;;;;;5013229;28;20137;-85
2022/04/11 05:11:36;;;;;;;12.40;5.95;;;128.40;2252.80;;;;;;5012697;28;19912;-78
2022/04/11 05:14:01;;;;;;;;;;;128.40;2252.80;;;;;;5012989;28;20386;-77
2022/04/11 05:16:27;;;;;;;8.98;4.05;;;128.50;2252.80;;;;;;5011776;28;19906;-78
2022/04/11 05:18:52;;;;;;;;;;;128.40;2252.80;;;;;;5012939;28;20046;-77
2022/04/11 05:21:18;;;;;;;10.50;4.70;;;128.50;2252.80;;;;;;5012860;28;20357;-77
2022/04/11 05:23:44;;;;;;;;;;;128.50;2252.80;;;;;;5014053;28;20466;-77
2022/04/11 05:26:10;;;;;;;10.35;4.18;;;128.40;2252.80;;;;;;5013862;28;20338;-77
2022/04/11 05:28:35;;;;;;;;;;;128.60;2252.80;;;;;;5013131;28;20030;-77
2022/04/11 05:31:01;;;;;;;13.75;6.05;;;128.60;2252.80;;;;;;5012839;28;20002;-77
2022/04/11 05:33:28;;;;;;;;;;;128.60;2252.80;;;;;;5013150;28;20374;-79
2022/04/11 05:35:56;;;;;;;5.13;3.03;;;128.70;2252.80;;;;;;5012794;28;19905;-78
2022/04/11 05:38:22;;;;;;;7.15;3.78;;;128.40;2252.80;;;;;;5012611;28;20034;-78
2022/04/11 05:40:48;;;;;;;12.32;4.90;;;128.40;2252.80;;;;;;5003979;28;20117;-78
2022/04/11 05:43:14;;;;;;;;;;;128.50;2252.80;;;;;;5003474;28;20038;-78
2022/04/11 05:45:43;;;;;;;15.85;6.00;;;128.60;2252.80;;;;;;5001989;28;19920;-78
2022/04/11 05:48:09;;;;;;;11.82;5.47;;;128.70;2252.80;;;;;;5002465;28;20022;-75
2022/04/11 05:50:36;;;;;;;9.45;5.05;;;128.70;2252.80;;;;;;5003881;28;20029;-77
2022/04/11 05:53:02;;;;;;;15.90;5.88;;;128.80;2252.80;;;;;;5000910;28;20041;-75
2022/04/11 05:55:29;;;;;;;11.40;5.43;;;128.90;2252.80;;;;;;5007597;28;20073;-83
2022/04/11 05:57:55;;;;;;;11.82;4.47;;;128.90;2252.80;;;;;;5012241;28;20026;-76
2022/04/11 06:00:20;;;;;;;;;;;153.80;2252.80;;;;;;5012539;28;20025;-75
2022/04/11 06:02:47;;;;;;;14.15;4.35;;;153.80;2252.80;;;;;;5013360;28;20261;-74
2022/04/11 06:05:13;;;;;;;11.65;5.35;;;154.00;2252.80;;;;;;5013065;28;20029;-76
2022/04/11 06:07:38;;;;;;;;;;;154.20;2252.80;;;;;;5014099;28;20026;-75
2022/04/11 06:10:05;;;;;;;14.18;4.80;;;154.40;2252.80;;;;;;5013193;28;20040;-75
2022/04/11 06:12:31;;;;;;;18.52;5.55;;;154.50;2252.80;;;;;;5011846;28;20022;-77
2022/04/11 06:14:58;;;;;;;;;;;179.20;2252.80;;;;;;5013022;28;20044;-78
2022/04/11 06:17:24;;;;;;;12.40;4.60;;;179.30;2252.80;;;;;;5013433;28;19905;-76
2022/04/11 06:19:51;;;;;;;;;;;179.30;2252.80;;;;;;5013415;28;20417;-76
2022/04/11 06:22:17;;;;;;;9.00;5.00;;;179.40;2252.80;;;;;;5010735;28;19909;-76
2022/04/11 06:24:43;;;;;;;8.80;4.65;;;179.50;2252.80;;;;;;5012199;28;20034;-83
2022/04/11 06:27:10;;;;;;;13.45;4.65;;;179.60;2252.80;;;;;;5013636;28;20057;-77
2022/04/11 06:29:35;;;;;;;;;;;179.70;2252.80;;;;;;5015313;28;20033;-77
2022/04/11 06:32:04;;;;;;;9.23;4.53;;;179.90;2252.80;;;;;;5005432;28;19906;-79
2022/04/11 06:34:30;;;;;;;8.13;4.38;;;179.90;2252.80;;;;;;5007977;28;20052;-79
2022/04/11 06:36:56;;;;;;;10.05;5.22;;;180.10;2252.80;;;;;;5022570;28;20026;-77
2022/04/11 06:39:23;;;;;;;;;;;180.10;2252.80;;;;;;5005201;28;20054;-79
2022/04/11 06:41:49;;;;;;;10.10;5.00;;;180.10;2252.80;;;;;;5004127;28;19929;-76
2022/04/11 06:44:15;;;;;;;;;;;204.90;2252.80;;;;;;5009851;28;20494;-76
2022/04/11 06:46:41;;;;;;;9.13;5.28;;;205.00;2252.80;;;;;;5012015;28;20012;-75
2022/04/11 06:49:07;;;;;;;;;;;205.00;2252.80;;;;;;5004611;28;20467;-76
2022/04/11 06:51:32;;;;;;;11.75;4.28;;;205.10;2252.80;;;;;;5005032;28;19910;-84
2022/04/11 06:53:58;;;;;;;;;;;205.20;2252.80;;;;;;5007625;28;20354;-77
2022/04/11 06:56:24;;;;;;;8.07;4.28;;;205.20;2252.80;;;;;;5015041;28;19921;-76
2022/04/11 06:58:49;;;;;;;;;;;205.40;2252.80;;;;;;5016715;28;20029;-77
2022/04/11 07:01:15;;;;;;;9.30;4.70;;;205.60;2252.80;;;;;;5015017;28;20389;-78
2022/04/11 07:03:41;;;;;;;;;;;230.40;2252.80;;;;;;5016345;28;20151;-78
2022/04/11 07:06:07;;;;;;;11.50;4.55;;;230.40;2252.80;;;;;;5015197;28;20012;-78
2022/04/11 07:08:33;;;;;;;16.45;6.35;;;230.50;2252.80;;;;;;5014885;28;20034;-80
2022/04/11 07:10:59;;;;;;;;;;;230.70;2252.80;;;;;;5015359;28;20029;-76
2022/04/11 07:13:25;;;;;;;8.48;5.03;;;230.80;2227.20;;;;;;5014748;28;19905;-77
2022/04/11 07:15:50;;;;;;;;;;;230.90;2176.00;;;;;;5015038;28;20026;-77
2022/04/11 07:18:16;;;;;;;10.77;4.03;;;230.90;2176.00;;;;;;5014560;28;19905;-77
2022/04/11 07:20:42;;;;;;;10.70;4.55;;;230.90;2176.00;;;;;;5015642;28;20442;-75
2022/04/11 07:23:07;;;;;;;;;;;231.00;2176.00;;;;;;5014784;28;20038;-76
2022/04/11 07:25:33;;;;;;;10.30;4.30;;;231.00;2150.40;;;;;;5015395;28;19921;-76
2022/04/11 07:27:59;;;;;;;;;;;231.10;2124.80;;;;;;5014785;28;20105;-78
2022/04/11 07:30:24;;;;;;;8.98;4.65;;;231.20;2124.80;;;;;;5014384;28;19905;-75
2022/04/11 07:32:50;;;;;;;;;;;231.30;2124.80;;;;;;5014579;28;20029;-76
2022/04/11 07:35:16;;;;;;;9.85;4.70;;;231.30;2099.20;;;;;;5014219;28;19947;-76
2022/04/11 07:37:41;;;;;;;;;;;231.30;2073.60;;;;;;5013868;28;20022;-76
2022/04/11 07:40:08;;;;;;;9.55;4.88;;;256.20;2073.60;;;;;;5014945;28;20384;-76
2022/04/11 07:42:33;;;;;;;8.82;4.82;;;256.40;2099.20;;;;;;5015360;28;20029;-77
2022/04/11 07:44:59;;;;;;;22.95;12.77;;;256.50;2022.40;;;;;;5015259;28;20030;-77
2022/04/11 07:47:25;;;;;;;;;;;256.70;2022.40;;;;;;5014201;28;20117;-77
2022/04/11 07:49:50;;;;;;;7.88;4.53;;;256.80;2022.40;;;;;;5015170;28;19905;-75
2022/04/11 07:52:16;;;;;;;;;;;256.80;1996.80;;;;;;5015280;28;20018;-78
2022/04/11 07:54:42;;;;;;;5.78;3.53;;;256.80;1945.60;;;;;;5014597;28;19917;-77
2022/04/11 07:57:09;;;;;;;;;;;256.90;1920.00;;;;;;5015737;28;20045;-77
2022/04/11 07:59:35;;;;;;;13.57;5.57;;;256.90;1920.00;;;;;;5014345;28;19906;-76
2022/04/11 08:02:01;;;;;;;9.02;4.88;;;281.60;1945.60;;;;;;5014709;28;20065;-76
2022/04/11 08:04:26;;;;;;;8.00;5.07;;;281.60;1894.40;;;;;;5013530;28;20093;-77
2022/04/11 08:06:52;;;;;;;6.72;4.10;;;281.70;1894.40;;;;;;5013242;28;20497;-75
2022/04/11 08:09:19;;;;;;;14.43;5.28;;;281.70;1843.20;;;;;;5013704;28;20056;-79
2022/04/11 08:11:44;;;;;;;6.43;4.00;;;281.70;1843.20;;;;;;5013245;28;20145;-77
2022/04/11 08:14:10;;;;;;;5.82;3.35;;;281.80;1868.80;;;;;;5013291;28;20057;-78
2022/04/11 08:16:36;;;;;;;;;;;281.90;1843.20;;;;;;5013871;28;20080;-77
2022/04/11 08:19:01;;;;;;;7.32;3.60;;;282.00;1843.20;;;;;;5013317;28;19957;-75
2022/04/11 08:21:27;;;;;;;;;;;282.00;1843.20;;;;;;5014716;28;20477;-77
2022/04/11 08:23:52;;;;;;;9.70;3.08;;;282.10;1843.20;;;;;;5014420;28;19910;-76
2022/04/11 08:26:18;;;;;;;;;;;282.00;1817.60;;;;;;5014764;28;20053;-78
2022/04/11 08:28:44;;;;;;;8.30;3.25;;;282.10;1843.20;;;;;;5012936;28;20268;-76
2022/04/11 08:31:09;;;;;;;;;;;282.00;1817.60;;;;;;5014820;28;20022;-77
2022/04/11 08:33:35;;;;;;;5.75;3.03;;;282.10;1817.60;;;;;;5014218;28;19905;-77
2022/04/11 08:36:01;;;;;;;5.68;3.30;;;282.10;1792.00;;;;;;5014213;28;20080;-77
2022/04/11 08:38:26;;;;;;;6.68;3.80;;;282.20;1792.00;;;;;;5014035;28;20105;-78
2022/04/11 08:40:54;;;;;;;4.30;2.65;;;282.30;1817.60;;;;;;5012818;28;20034;-77
2022/04/11 08:43:25;;;;;;;8.27;3.60;;;282.40;1792.00;;;;;;5012657;28;20030;-76
2022/04/11 08:45:55;;;;;;;7.03;3.15;;;282.30;1740.80;;;;;;5014357;28;20034;-78
2022/04/11 08:48:22;;;;;;;5.57;3.65;;;282.30;1766.40;;;;;;5012584;28;20018;-75
2022/04/11 08:50:48;;;;;;;6.65;3.33;;;282.40;1740.80;;;;;;5013571;28;20025;-75
2022/04/11 08:53:18;;;;;;;7.40;3.60;;;282.50;1766.40;;;;;;5012402;28;20026;-75
2022/04/11 08:55:44;;;;;;;5.82;3.38;;;282.50;1740.80;;;;;;5013797;28;20056;-76
2022/04/11 08:58:10;;;;;;;11.10;3.50;;;282.50;1740.80;;;;;;5013980;28;20029;-80
2022/04/11 09:00:35;;;;;;;9.23;4.30;;;282.50;1689.60;;;;;;5012554;28;20022;-76
2022/04/11 09:03:01;;;;;;;7.70;3.92;;;307.30;1740.80;;;;;;5012538;28;20033;-81
2022/04/11 09:05:29;;;;;;;;;;;307.50;1740.80;;;;;;5014338;28;20025;-79
2022/04/11 09:07:58;;;;;;;22.83;7.57;;;307.50;1715.20;;;;;;5012506;28;19905;-74
2022/04/11 09:10:36;;;;;;;10.35;3.97;;;307.50;1715.20;;;;;;5012560;28;20536;-81
2022/04/11 09:13:08;;;;;;;8.13;3.03;;;307.60;1664.00;;;;;;5013669;28;20034;-76
2022/04/11 09:15:42;;;;;;;6.63;3.33;;;307.70;1664.00;;;;;;5013797;28;20025;-77
2022/04/11 09:18:08;;;;;;;12.68;5.78;;;307.80;1638.40;;;;;;5012533;28;20029;-81
2022/04/11 09:20:34;;;;;;;13.43;6.20;;;307.80;1638.40;;;;;;5013862;28;20022;-84
2022/04/11 09:23:00;;;;;;;8.38;3.80;;;307.80;1664.00;;;;;;5012257;28;20030;-79
2022/04/11 09:25:31;;;;;;;6.55;3.13;;;307.80;1638.40;;;;;;5012262;28;20386;-76
2022/04/11 09:28:15;;;;;;;11.05;3.90;;;307.80;1638.40;;;;;;5012592;28;20057;-76
2022/04/11 09:30:44;;;;;;;8.75;3.15;;;307.90;1612.80;;;;;;5013801;28;20053;-81
2022/04/11 09:33:11;;;;;;;7.50;3.70;;;308.10;1587.20;;;;;;5012693;28;20025;-82
2022/04/11 09:35:39;;;;;;;10.68;3.20;;;332.80;1587.20;;;;;;5012348;28;20022;-81
2022/04/11 09:38:11;;;;;;;9.00;4.45;;;308.10;1561.60;;;;;;5012506;28;20362;-76
2022/04/11 09:40:57;;;;;;;7.82;3.30;;;332.90;1612.80;;;;;;5012376;28;20053;-82
2022/04/11 09:43:34;;;;;;;7.53;3.37;;;332.80;1638.40;;;;;;5013542;28;20105;-82
2022/04/11 09:46:00;;;;;;;;;;;333.00;1612.80;;;;;;5014175;28;20057;-77
2022/04/11 09:48:30;;;;;;;5.93;3.10;;;333.20;1587.20;;;;;;5012769;28;19961;-81
2022/04/11 09:50:59;;;;;;;7.38;3.67;;;333.20;1561.60;;;;;;5013858;28;20033;-76
2022/04/11 09:53:35;;;;;;;5.93;2.95;;;333.20;1536.00;;;;;;5013301;28;20173;-76
2022/04/11 09:56:02;;;;;;;;;;;333.40;1459.20;;;;;;5012604;28;20124;-79
2022/04/11 09:58:28;;;;;;;9.50;4.78;;;333.50;1433.60;;;;;;5013426;28;19911;-76
2022/04/11 10:00:55;;;;;;;4.88;2.72;;;333.60;1484.80;;;;;;5013414;28;20034;-77
2022/04/11 10:03:22;;;;;;;6.13;3.40;;;333.70;1433.60;;;;;;5015893;28;20021;-80
2022/04/11 10:05:49;;;;;;;7.75;3.10;;;358.50;1433.60;;;;;;5016878;28;20030;-80
2022/04/11 10:08:15;;;;;;;6.47;2.50;;;358.70;1433.60;;;;;;5016053;28;20030;-76
2022/04/11 10:10:41;;;;;;;5.68;3.10;;;358.80;1356.80;;;;;;5013711;28;20077;-80
2022/04/11 10:13:17;;;;;;;8.40;4.68;;;358.90;1356.80;;;;;;5006203;28;20018;-74
2022/04/11 10:15:51;;;;;;;5.70;2.70;;;359.00;1356.80;;;;;;5006124;28;20121;-74
2022/04/11 10:18:25;;;;;;;7.15;3.05;;;359.20;1305.60;;;;;;5006066;28;20106;-76
2022/04/11 10:20:56;;;;;;;9.07;3.05;;;384.10;1331.20;;;;;;5004534;28;20045;-75
2022/04/11 10:23:39;;;;;;;15.05;6.68;;;384.00;1331.20;;;;;;5005080;28;20371;-76
2022/04/11 10:26:18;;;;;;;5.65;2.85;;;384.10;1356.80;;;;;;5010948;28;20080;-76
2022/04/11 10:28:51;;;;;;;4.05;2.30;;;384.10;1305.60;;;;;;5016709;28;20448;-75
2022/04/11 10:31:18;;;;;;;4.90;2.33;;;384.00;1254.40;;;;;;5007622;28;20072;-77
2022/04/11 10:33:57;;;;;;;5.70;2.58;;;384.00;1280.00;;;;;;5005606;28;20359;-75
2022/04/11 10:36:36;;;;;;;6.70;2.50;;;384.20;1280.00;;;;;;5006068;28;20389;-79
2022/04/11 10:39:16;;;;;;;4.20;2.63;;;384.50;1254.40;;;;;;5014507;28;20034;-81
2022/04/11 10:41:54;;;;;;;5.53;2.15;;;384.60;1280.00;;;;;;4996819;28;20022;-78
2022/04/11 10:44:30;;;;;;;6.60;2.63;;;384.40;1254.40;;;;;;4996902;28;20023;-79
2022/04/11 10:47:08;;;;;;;3.22;1.90;;;384.90;1203.20;;;;;;4996001;28;20097;-80
2022/04/11 10:49:48;;;;;;;6.55;3.10;;;409.60;1228.80;;;;;;4996752;28;20098;-75
2022/04/11 10:52:33;;;;;;;4.65;2.17;;;384.90;1254.40;;;;;;4996552;28;20041;-81
2022/04/11 10:55:08;;;;;;;4.47;1.90;;;409.60;1228.80;;;;;;4996478;28;20104;-80
2022/04/11 10:57:41;;;;;;;7.25;2.35;;;409.70;1228.80;;;;;;4996152;28;20045;-81
2022/04/11 11:00:14;;;;;;;4.35;2.35;;;409.70;1228.80;;;;;;4996749;28;20023;-76
2022/04/11 11:02:52;;;;;;;8.38;2.13;;;410.20;1203.20;;;;;;4996374;28;20030;-80
2022/04/11 11:05:28;;;;;;;6.28;2.55;;;410.00;1843.20;;;;;;5005528;28;20022;-80
2022/04/11 11:08:09;;;;;;;7.30;2.17;;;410.20;1254.40;;;;;;5015843;28;20029;-78
2022/04/11 11:10:59;;;;;;;5.80;2.25;;;410.40;1152.00;;;;;;5016036;28;20445;-79
2022/04/11 11:13:43;;;;;;;5.95;2.40;;;435.30;1203.20;;;;;;5014548;28;20433;-79
2022/04/11 11:16:12;;;;;;;5.05;2.40;;;410.30;1228.80;;;;;;5015855;28;20022;-79
2022/04/11 11:18:47;;;;;;;6.22;2.05;;;384.90;1177.60;;;;;;5014755;28;20061;-78
2022/04/11 11:21:13;;;;;;;5.15;2.45;;;384.20;1203.20;;;;;;5014690;28;20486;-77
2022/04/11 11:23:39;;;;;;;8.68;2.15;;;384.70;1203.20;;;;;;5015643;28;20045;-78
2022/04/11 11:26:11;;;;;;;5.15;2.20;;;409.80;1177.60;;;;;;5014561;28;20038;-78
2022/04/11 11:28:40;;;;;;;2.85;1.90;;;409.60;1203.20;;;;;;5014362;28;20033;-77
2022/04/11 11:31:06;;;;;;;6.70;2.40;;;384.70;1203.20;;;;;;5014505;28;20030;-79
2022/04/11 11:33:32;;;;;;;4.22;1.75;;;384.20;1177.60;;;;;;5014582;28;20038;-78
2022/04/11 11:35:58;;;;;;;4.68;2.30;;;384.00;1177.60;;;;;;5014262;28;20462;-78
2022/04/11 11:38:28;;;;;;;4.03;2.40;;;359.00;1177.60;;;;;;5015571;28;20025;-77
2022/04/11 11:40:55;;;;;;;4.50;2.20;;;358.80;1203.20;;;;;;5009413;28;20024;-77
2022/04/11 11:43:26;;;;;;;4.53;2.08;;;358.80;1203.20;;;;;;5006114;28;20025;-80
2022/04/11 11:45:55;;;;;;;4.18;1.92;;;358.90;1228.80;;;;;;5003560;28;20038;-78
2022/04/11 11:48:32;;;;;;;6.40;2.42;;;359.00;1254.40;;;;;;5003159;28;20054;-77
2022/04/11 11:51:00;;;;;;;4.35;1.90;;;359.10;1228.80;;;;;;5003026;28;20046;-77
2022/04/11 11:53:39;;;;;;;5.63;2.40;;;359.20;1254.40;;;;;;5019834;28;20058;-78
2022/04/11 11:56:07;;;;;;;7.15;2.90;;;359.20;1203.20;;;;;;5003930;28;20048;-77
2022/04/11 11:58:38;;;;;;;6.43;2.70;;;384.70;1177.60;;;;;;5006177;28;20024;-80
2022/04/11 12:01:10;;;;;;;4.57;2.55;;;409.90;1152.00;;;;;;5002704;28;20097;-78
2022/04/11 12:06:27;;;;;;;5.72;2.17;;;435.20;1075.20;;;;;;5012422;28;20108;-76
2022/04/11 12:09:01;;;;;;;12.32;2.10;;;435.50;1152.00;;;;;;5012313;28;20018;-80
2022/04/11 12:11:29;;;;;;;3.38;1.77;;;435.20;1100.80;;;;;;5014292;28;20100;-77
2022/04/11 12:14:03;;;;;;;4.07;1.75;;;435.60;1100.80;;;;;;5005145;28;20080;-78
2022/04/11 12:16:30;;;;;;;3.10;1.52;;;435.30;1049.60;;;;;;5026884;28;20026;-78
2022/04/11 12:18:57;;;;;;;4.40;1.77;;;435.50;1049.60;;;;;;5013084;28;20367;-78
2022/04/11 12:21:34;;;;;;;3.25;1.70;;;435.50;1075.20;;;;;;5013305;28;20034;-78
2022/04/11 12:24:00;;;;;;;;;;;410.50;1100.80;;;;;;5012995;28;20065;-78
2022/04/11 12:26:31;;;;;;;7.03;1.45;;;410.00;1126.40;;;;;;5014033;28;19940;-78
2022/04/11 12:29:00;;;;;;;4.05;1.98;;;409.60;1152.00;;;;;;5013131;28;20022;-78
2022/04/11 12:31:26;;;;;;;3.47;1.73;;;384.90;1152.00;;;;;;5013484;28;20105;-78
2022/04/11 12:33:52;;;;;;;6.63;2.13;;;384.70;1152.00;;;;;;5012537;28;20120;-77
2022/04/11 12:36:23;;;;;;;4.57;2.08;;;384.40;1126.40;;;;;;5013544;28;20100;-78
2022/04/11 12:39:00;;;;;;;2.88;1.67;;;359.30;1152.00;;;;;;5011240;28;20014;-78
2022/04/11 12:41:36;;;;;;;3.45;1.58;;;359.10;1152.00;;;;;;5010355;28;20116;-79